Southwest Florida International Airport Fort Myers US
ICAO: KRSW
IATA: RSW
Category: Large
Scheduled Services: Yes

Elevation: 30 ft
TransAlt. 18000 ft.

Airport Communications:
FORT MYERS APP/DEP:119.75
ATIS:124.65
CLNC DEL:132.075
GND:121.9
FORT MYERS TWR:128.75
CTAF/UNICOM:122.95

KRSW Zoom In..

If you have problems with the map follow the link
https://www.worldairports.se/pages/airport.php?
ICAO=KRSW

Runways:

(A) RW 06 length 12000 ft width 150 ft
ILS 111.50 / hdg 58

(B) RW 24 length 12000 ft width 150 ft
---- / hdg 238

Location; KRSW
Day. 17 / Time. 21.53 Zulu
* Altimeter: 30.26
* Temperature: 24° c. 75.2°f.
* Wind from: 080° Speed 15 kn with Gusts up to 22 kn.
Dewpoint: 16° c.
Visibility: 10 Statute Miles.
Clouds: Broken 4700 ft.
Clouds: Overcast 5500 ft.
Conditions: Light Rain.

KRSW 172153Z 08015G22KT 10SM -RA BKN047 OVC055 24/16 A3026 RMK AO2 PK WND 08028/2126 SLP243 P0000 T02390156


Wind From 080°
Speed 15 kn.

 
 
jpsmedia worldairports.se 2020   terms of use